Time;durP1;ratioP1;P1;durP2;ratioP2;P2;SDS_P1;SDS_P2;PMS_P1;PMS_P2;Temp;Humidity;BMP_temperature;BMP_pressure;BME280_temperature;BME280_humidity;BME280_pressure;Samples;Min_cycle;Max_cycle;Signal;HPM_P1;HPM_P2
2021/04/22 00:00:34;;;;;;;21.85;13.93;;;;;;;9.25;75.87;98836.02;1747891;81;21052;-69
2021/04/22 00:03:02;;;;;;;23.52;15.58;;;;;;;9.25;75.97;98834.30;1748230;81;21486;-69
2021/04/22 00:05:34;;;;;;;22.10;14.13;;;;;;;9.25;76.02;98840.73;1748041;81;21068;-71
2021/04/22 00:08:05;;;;;;;21.60;13.13;;;;;;;9.24;76.11;98836.44;1747862;82;21222;-70
2021/04/22 00:10:49;;;;;;;19.50;14.07;;;;;;;9.20;76.19;98840.23;1748070;81;21056;-73
2021/04/22 00:13:23;;;;;;;19.75;14.33;;;;;;;9.14;76.32;98835.87;1747638;82;21068;-72
2021/04/22 00:15:52;;;;;;;20.37;13.62;;;;;;;9.07;76.49;98837.47;1748254;81;21598;-70
2021/04/22 00:18:20;;;;;;;19.30;13.85;;;;;;;9.01;76.62;98836.53;1748264;81;21541;-71
2021/04/22 00:20:49;;;;;;;18.62;12.55;;;;;;;8.96;76.91;98836.89;1748200;82;21076;-75
2021/04/22 00:23:18;;;;;;;18.40;12.30;;;;;;;8.91;77.11;98835.52;1748219;82;21490;-74
2021/04/22 00:25:47;;;;;;;18.87;13.43;;;;;;;8.90;77.24;98842.38;1748201;82;21083;-74
2021/04/22 00:28:16;;;;;;;19.60;12.43;;;;;;;8.90;77.33;98841.09;1748001;82;21198;-72
2021/04/22 00:30:45;;;;;;;24.35;13.45;;;;;;;8.91;77.42;98840.67;1748104;82;21052;-73
2021/04/22 00:33:17;;;;;;;16.52;11.68;;;;;;;8.93;77.45;98836.81;1748016;82;21072;-68
2021/04/22 00:35:46;;;;;;;16.67;11.97;;;;;;;8.89;77.51;98843.63;1748187;81;21025;-68
2021/04/22 00:38:14;;;;;;;17.45;11.43;;;;;;;8.85;77.59;98845.30;1748181;81;21207;-67
2021/04/22 00:40:43;;;;;;;22.00;12.85;;;;;;;8.81;77.70;98838.37;1748265;81;21601;-67
2021/04/22 00:43:16;;;;;;;16.87;11.60;;;;;;;8.77;77.84;98841.72;1748098;82;21059;-70
2021/04/22 00:45:48;;;;;;;20.57;12.50;;;;;;;8.72;77.92;98851.07;1748004;82;21092;-65
2021/04/22 00:48:22;;;;;;;18.12;12.05;;;;;;;8.69;78.07;98848.45;1748134;81;21048;-68
2021/04/22 00:50:53;;;;;;;19.27;11.70;;;;;;;8.68;78.26;98852.73;1719072;81;21107;-67
2021/04/22 00:53:23;;;;;;;17.05;12.33;;;;;;;8.70;78.36;98864.32;1709887;83;21055;-67
2021/04/22 00:55:55;;;;;;;16.77;11.93;;;;;;;8.71;78.40;98857.50;1709893;83;21245;-70
2021/04/22 00:58:22;;;;;;;18.95;12.75;;;;;;;8.69;78.41;98857.03;1709883;83;21201;-71
2021/04/22 01:01:00;;;;;;;17.77;13.22;;;;;;;8.67;78.49;98861.70;1710093;83;21537;-71
2021/04/22 01:03:29;;;;;;;16.45;10.50;;;;;;;8.63;78.54;98862.52;1709992;83;21063;-72
2021/04/22 01:06:01;;;;;;;16.07;11.57;;;;;;;8.58;78.69;98867.57;1709878;83;21055;-71
2021/04/22 01:08:29;;;;;;;;;;;;;;;8.55;78.76;98862.77;1712401;83;21047;-70
2021/04/22 01:10:58;;;;;;;17.50;12.37;;;;;;;8.49;79.03;98860.97;1709782;83;20137;-69
2021/04/22 01:13:27;;;;;;;16.35;11.63;;;;;;;8.44;79.17;98857.02;1709868;83;21512;-69
2021/04/22 01:15:55;;;;;;;17.02;11.78;;;;;;;8.42;79.35;98865.16;1710047;83;21102;-71
2021/04/22 01:18:22;;;;;;;15.63;11.97;;;;;;;8.40;79.49;98862.11;1710119;83;21490;-69
2021/04/22 01:20:52;;;;;;;18.07;12.60;;;;;;;8.40;79.57;98860.41;1709825;83;21497;-69
2021/04/22 01:23:20;;;;;;;16.30;11.57;;;;;;;8.39;79.66;98866.36;1710103;83;21477;-70
2021/04/22 01:25:52;;;;;;;18.27;12.93;;;;;;;8.37;79.80;98864.57;1709852;83;21078;-72
2021/04/22 01:28:23;;;;;;;16.95;12.37;;;;;;;8.34;79.86;98867.09;1710229;83;21627;-66
2021/04/22 01:30:56;;;;;;;17.00;11.48;;;;;;;8.31;79.92;98859.33;1710347;83;21474;-68
2021/04/22 01:33:28;;;;;;;18.80;12.33;;;;;;;8.30;80.04;98870.04;1710063;83;21066;-71
2021/04/22 01:35:58;;;;;;;16.73;11.18;;;;;;;8.29;80.11;98867.00;1710076;83;21217;-67
2021/04/22 01:38:28;;;;;;;18.07;11.95;;;;;;;8.29;80.28;98863.14;1710221;83;21582;-67
2021/04/22 01:40:57;;;;;;;17.00;12.68;;;;;;;8.33;80.30;98866.23;1709861;83;21086;-69
2021/04/22 01:43:27;;;;;;;20.23;12.60;;;;;;;8.39;80.22;98861.61;1709831;83;21050;-67
2021/04/22 01:45:55;;;;;;;19.35;13.43;;;;;;;8.39;80.19;98861.22;1709843;83;21196;-71
2021/04/22 01:48:24;;;;;;;19.87;13.10;;;;;;;8.39;80.12;98858.65;1710083;83;21488;-72
2021/04/22 01:50:52;;;;;;;17.17;12.78;;;;;;;8.36;80.15;98861.14;1709802;82;21118;-69
2021/04/22 01:53:21;;;;;;;20.08;13.25;;;;;;;8.32;80.16;98856.80;1709833;83;21047;-69
2021/04/22 01:55:51;;;;;;;18.05;13.38;;;;;;;8.28;80.24;98856.71;1709794;83;21201;-70
2021/04/22 01:58:23;;;;;;;20.20;13.18;;;;;;;8.24;80.41;98855.77;1710107;83;21063;-68
2021/04/22 02:00:58;;;;;;;19.42;12.90;;;;;;;8.21;80.60;98862.14;1709845;83;21133;-67
2021/04/22 02:03:30;;;;;;;17.57;12.40;;;;;;;8.21;80.64;98860.86;1709842;84;21027;-70
2021/04/22 02:06:03;;;;;;;17.52;12.47;;;;;;;8.20;80.64;98860.00;1710110;83;21047;-70
2021/04/22 02:08:32;;;;;;;19.12;13.15;;;;;;;8.21;80.61;98859.15;1709819;83;21055;-71
2021/04/22 02:11:03;;;;;;;17.40;12.58;;;;;;;8.21;80.57;98857.00;1709825;83;21063;-71
2021/04/22 02:13:31;;;;;;;18.62;13.25;;;;;;;8.19;80.56;98863.42;1710070;83;21457;-74
2021/04/22 02:15:59;;;;;;;17.67;12.95;;;;;;;8.18;80.51;98863.38;1709787;83;21220;-69
2021/04/22 02:18:28;;;;;;;19.05;13.50;;;;;;;8.17;80.50;98866.80;1709812;83;21102;-68
2021/04/22 02:20:55;;;;;;;16.55;12.13;;;;;;;8.15;80.55;98872.33;1709813;83;21086;-68
2021/04/22 02:23:25;;;;;;;19.20;13.90;;;;;;;8.13;80.62;98866.28;1710005;83;21059;-73
2021/04/22 02:25:53;;;;;;;20.77;13.38;;;;;;;8.13;80.64;98861.14;1710070;83;21130;-72
2021/04/22 02:28:21;;;;;;;20.70;14.20;;;;;;;8.14;80.62;98865.43;1709992;83;21192;-70
2021/04/22 02:30:49;;;;;;;26.60;14.68;;;;;;;8.13;80.65;98872.70;1710065;83;21469;-69
2021/04/22 02:33:19;;;;;;;23.47;15.08;;;;;;;8.08;80.71;98869.19;1710082;83;21103;-69
2021/04/22 02:35:50;;;;;;;22.35;14.53;;;;;;;8.02;80.73;98869.52;1709754;83;21047;-68
2021/04/22 02:38:18;;;;;;;24.07;14.30;;;;;;;7.98;80.87;98862.99;1709793;83;21217;-68
2021/04/22 02:40:48;;;;;;;19.62;13.13;;;;;;;7.93;80.98;98872.31;1709796;83;21087;-67
2021/04/22 02:43:19;;;;;;;20.20;14.07;;;;;;;7.88;81.12;98867.08;1709791;83;21059;-66
2021/04/22 02:45:52;;;;;;;23.35;14.47;;;;;;;7.87;81.23;98873.06;1710068;84;21245;-69
2021/04/22 02:48:23;;;;;;;22.17;13.93;;;;;;;7.90;81.32;98874.41;1709780;83;21140;-67
2021/04/22 02:50:54;;;;;;;20.65;14.75;;;;;;;7.92;81.32;98881.73;1709769;81;21118;-68
2021/04/22 02:53:23;;;;;;;21.33;14.40;;;;;;;7.93;81.29;98876.17;1710053;83;21067;-69
2021/04/22 02:55:53;;;;;;;21.93;15.32;;;;;;;7.92;81.25;98880.45;1709828;83;21070;-66
2021/04/22 02:58:26;;;;;;;20.40;14.78;;;;;;;7.90;81.29;98878.25;1709825;83;21051;-66
2021/04/22 03:00:56;;;;;;;21.42;14.78;;;;;;;7.87;81.34;98885.91;1710198;84;21635;-67
2021/04/22 03:03:24;;;;;;;23.22;14.63;;;;;;;7.86;81.40;98888.05;1710040;83;21216;-65
2021/04/22 03:05:55;;;;;;;20.23;13.38;;;;;;;7.85;81.49;98885.00;1709794;83;21063;-66
2021/04/22 03:08:24;;;;;;;20.60;14.40;;;;;;;7.85;81.59;98882.44;1710065;83;21059;-66
2021/04/22 03:10:53;;;;;;;21.12;13.90;;;;;;;7.88;81.61;98883.77;1710063;83;21055;-66
2021/04/22 03:13:22;;;;;;;19.23;13.95;;;;;;;7.90;81.62;98888.53;1709978;83;21501;-67
2021/04/22 03:15:50;;;;;;;22.22;14.93;;;;;;;7.93;81.55;98893.73;1710031;83;21454;-64
2021/04/22 03:18:18;;;;;;;20.80;14.78;;;;;;;7.92;81.52;98885.59;1710103;83;21063;-64
2021/04/22 03:20:46;;;;;;;23.30;15.68;;;;;;;7.92;81.52;98897.15;1710023;84;21059;-65
2021/04/22 03:23:13;;;;;;;23.92;14.60;;;;;;;7.90;81.54;98892.39;1710114;84;21057;-64
2021/04/22 03:25:41;;;;;;;21.70;14.63;;;;;;;7.87;81.61;98888.48;1709869;83;21357;-65
2021/04/22 03:28:09;;;;;;;18.92;13.50;;;;;;;7.85;81.70;98896.56;1709966;83;21196;-65
2021/04/22 03:30:36;;;;;;;19.62;14.35;;;;;;;7.85;81.80;98895.70;1710062;83;21062;-65
2021/04/22 03:33:04;;;;;;;20.68;14.25;;;;;;;7.87;81.82;98896.19;1709790;83;21189;-66
2021/04/22 03:35:32;;;;;;;22.45;14.00;;;;;;;7.91;81.78;98895.42;1709767;83;21059;-60
2021/04/22 03:38:00;;;;;;;21.12;14.87;;;;;;;7.94;81.67;98899.76;1710111;83;21197;-62
2021/04/22 03:40:29;;;;;;;21.68;14.80;;;;;;;7.97;81.58;98896.82;1710131;83;21082;-64
2021/04/22 03:42:57;;;;;;;21.62;14.43;;;;;;;7.99;81.49;98902.86;1709757;83;21209;-64
2021/04/22 03:45:26;;;;;;;20.55;13.22;;;;;;;8.00;81.44;98894.73;1709760;83;21208;-62
2021/04/22 03:47:53;;;;;;;19.00;13.32;;;;;;;8.00;81.38;98904.59;1709971;83;21193;-64
2021/04/22 03:50:21;;;;;;;17.45;12.35;;;;;;;8.01;81.38;98906.34;1715000;82;21244;-60
2021/04/22 03:52:50;;;;;;;17.12;13.65;;;;;;;8.05;81.30;98911.97;1748178;82;21087;-65
2021/04/22 03:55:19;;;;;;;21.45;13.22;;;;;;;8.12;81.15;98910.41;1747990;82;21049;-64
2021/04/22 03:57:48;;;;;;;18.73;13.50;;;;;;;8.19;80.98;98916.52;1747936;81;21059;-64
2021/04/22 04:00:19;;;;;;;17.48;13.30;;;;;;;8.25;80.73;98917.94;1747726;82;21063;-61
2021/04/22 04:02:48;;;;;;;20.15;13.30;;;;;;;8.28;80.55;98923.55;1748150;82;21056;-61
2021/04/22 04:05:16;;;;;;;20.97;14.53;;;;;;;8.31;80.34;98927.03;1748013;81;21135;-59
2021/04/22 04:07:45;;;;;;;20.52;14.13;;;;;;;8.36;80.20;98918.99;1748256;81;21055;-63
2021/04/22 04:10:13;;;;;;;19.30;14.38;;;;;;;8.42;80.04;98925.98;1748208;81;21055;-63
2021/04/22 04:12:40;;;;;;;19.98;14.13;;;;;;;8.51;79.81;98934.31;1748081;82;21215;-64
2021/04/22 04:15:11;;;;;;;21.52;14.63;;;;;;;8.61;79.59;98931.06;1748239;82;21083;-61
2021/04/22 04:17:38;;;;;;;22.98;15.65;;;;;;;8.73;79.15;98940.30;1748255;82;21535;-61
2021/04/22 04:20:11;;;;;;;24.90;15.80;;;;;;;8.82;78.83;98940.44;1748006;82;21048;-65
2021/04/22 04:22:40;;;;;;;24.25;16.27;;;;;;;8.93;78.42;98950.05;1748281;81;21427;-63
2021/04/22 04:25:10;;;;;;;21.05;15.53;;;;;;;9.02;78.10;98943.78;1747989;81;21071;-62
2021/04/22 04:27:38;;;;;;;22.45;16.12;;;;;;;9.10;77.63;98951.20;1748326;82;21486;-63
2021/04/22 04:30:11;;;;;;;26.05;16.45;;;;;;;9.17;77.40;98953.05;1748049;82;21052;-64
2021/04/22 04:32:39;;;;;;;22.77;15.72;;;;;;;9.27;77.10;98964.37;1748271;82;21036;-62
2021/04/22 04:35:09;;;;;;;25.70;14.63;;;;;;;9.36;76.79;98955.48;1747972;81;21052;-62
2021/04/22 04:37:39;;;;;;;20.40;14.38;;;;;;;9.45;76.58;98963.80;1748005;82;21171;-64
2021/04/22 04:40:10;;;;;;;21.35;13.18;;;;;;;9.58;76.16;98963.13;1748019;82;21210;-64
2021/04/22 04:42:39;;;;;;;18.65;13.53;;;;;;;9.69;75.79;98960.30;1748329;82;21040;-62
2021/04/22 04:45:10;;;;;;;23.95;12.30;;;;;;;9.84;75.37;98970.36;1747934;82;21060;-62
2021/04/22 04:47:38;;;;;;;17.80;11.70;;;;;;;9.98;75.18;98965.84;1748189;82;21095;-64
2021/04/22 04:50:08;;;;;;;17.25;12.47;;;;;;;10.14;74.58;98974.64;1748183;81;21060;-60
2021/04/22 04:52:36;;;;;;;21.12;12.28;;;;;;;10.30;73.91;98974.44;1711681;82;21623;-63
2021/04/22 04:55:07;;;;;;;17.48;11.93;;;;;;;10.45;73.65;98973.75;1709839;83;21039;-61
2021/04/22 04:57:35;;;;;;;16.57;12.65;;;;;;;10.55;72.88;98969.56;1710207;83;21035;-64
2021/04/22 05:00:06;;;;;;;20.48;13.62;;;;;;;10.64;72.52;98976.99;1709885;83;21066;-63
2021/04/22 05:02:34;;;;;;;19.32;12.35;;;;;;;10.72;72.00;98978.80;1710043;83;21075;-62
2021/04/22 05:05:06;;;;;;;15.35;11.70;;;;;;;10.81;71.68;98978.88;1709884;83;21062;-61
2021/04/22 05:07:33;;;;;;;15.23;11.28;;;;;;;10.92;71.35;98977.28;1709906;83;21087;-62
2021/04/22 05:10:03;;;;;;;15.83;11.22;;;;;;;11.11;70.92;98980.03;1710129;83;21079;-62
2021/04/22 05:12:31;;;;;;;17.07;11.15;;;;;;;12.08;69.70;98973.41;1710054;83;21043;-61
2021/04/22 05:14:59;;;;;;;15.68;10.60;;;;;;;13.56;65.42;98981.12;1709889;83;21217;-63
2021/04/22 05:17:27;;;;;;;13.03;9.45;;;;;;;14.90;61.36;98984.12;1710254;83;21201;-64
2021/04/22 05:19:54;;;;;;;13.30;9.33;;;;;;;16.13;57.91;98987.02;1710123;83;21647;-65
2021/04/22 05:22:22;;;;;;;16.95;9.53;;;;;;;17.31;54.83;98983.27;1710088;83;21075;-61
2021/04/22 05:24:50;;;;;;;11.57;9.03;;;;;;;18.48;51.00;98996.39;1709948;83;21087;-64
2021/04/22 05:27:18;;;;;;;12.98;9.00;;;;;;;19.34;48.40;98991.90;1710096;83;21082;-63
2021/04/22 05:29:46;;;;;;;10.32;8.10;;;;;;;19.35;47.40;99004.52;1709853;83;21090;-64
2021/04/22 05:32:14;;;;;;;12.53;8.70;;;;;;;18.70;47.41;99003.34;1709855;83;21186;-64
2021/04/22 05:34:42;;;;;;;12.55;8.70;;;;;;;17.98;48.34;98997.78;1709827;83;21201;-65
2021/04/22 05:37:12;;;;;;;14.03;8.70;;;;;;;17.34;49.29;99006.69;1709626;83;21046;-63
2021/04/22 05:39:40;;;;;;;12.40;9.40;;;;;;;16.77;50.35;99000.98;1710039;83;21201;-66
2021/04/22 05:42:08;;;;;;;14.25;9.13;;;;;;;16.30;51.39;98999.82;1710093;83;21089;-62
2021/04/22 05:44:36;;;;;;;11.70;9.43;;;;;;;15.98;52.18;98998.89;1709954;83;21059;-63
2021/04/22 05:47:04;;;;;;;11.10;8.65;;;;;;;15.74;52.83;98994.78;1710189;84;21267;-62
2021/04/22 05:49:32;;;;;;;12.47;9.63;;;;;;;15.74;52.97;98993.47;1709906;83;21209;-60
2021/04/22 05:52:00;;;;;;;14.45;8.18;;;;;;;15.68;53.33;98994.81;1731517;81;21098;-63
2021/04/22 05:54:28;;;;;;;12.93;8.60;;;;;;;16.22;52.45;98989.49;1747898;81;21107;-61
2021/04/22 05:56:55;;;;;;;10.70;8.15;;;;;;;16.87;51.64;98991.33;1747928;81;21207;-62
2021/04/22 05:59:23;;;;;;;11.05;8.03;;;;;;;18.06;49.05;98995.48;1748105;82;21044;-63
2021/04/22 06:01:50;;;;;;;9.53;7.62;;;;;;;18.79;46.26;98994.02;1748237;82;21182;-65
2021/04/22 06:04:18;;;;;;;10.20;7.83;;;;;;;18.82;46.54;98996.55;1748173;82;21091;-62
2021/04/22 06:06:45;;;;;;;11.08;7.65;;;;;;;19.07;45.69;98994.70;1748148;82;21055;-63
2021/04/22 06:09:13;;;;;;;15.43;8.48;;;;;;;19.29;45.49;99006.39;1748153;82;21032;-63
2021/04/22 06:11:42;;;;;;;13.32;7.37;;;;;;;19.53;44.25;99004.07;1747873;81;21068;-63
2021/04/22 06:14:10;;;;;;;12.95;8.40;;;;;;;19.35;44.10;99012.38;1747869;82;21230;-65
2021/04/22 06:16:38;;;;;;;11.68;8.05;;;;;;;18.84;44.80;99010.91;1748176;82;21056;-60
2021/04/22 06:19:08;;;;;;;11.48;8.28;;;;;;;18.32;45.83;99011.53;1740339;82;21113;-62
2021/04/22 06:21:37;;;;;;;11.00;8.08;;;;;;;17.81;46.62;99007.70;1740094;82;21053;-62
2021/04/22 06:24:06;;;;;;;13.95;8.48;;;;;;;17.22;48.05;99002.97;1736885;81;21104;-63
2021/04/22 06:26:34;;;;;;;9.58;8.03;;;;;;;17.22;48.05;99002.97;1755808;81;21045;-65
2021/04/22 06:29:04;;;;;;;11.75;8.43;;;;;;;17.25;48.47;99010.31;1721564;81;21085;-63
2021/04/22 06:31:32;;;;;;;10.95;8.08;;;;;;;17.66;48.01;99003.56;1702987;83;21210;-65
2021/04/22 06:33:59;;;;;;;11.53;7.87;;;;;;;18.54;46.29;99015.85;1736426;81;21196;-62
2021/04/22 06:36:27;;;;;;;10.03;7.42;;;;;;;19.70;44.12;99011.55;1744454;82;21201;-63
2021/04/22 06:38:55;;;;;;;9.98;7.55;;;;;;;20.89;41.49;99017.89;1744372;82;21181;-63
2021/04/22 06:41:22;;;;;;;10.53;7.90;;;;;;;21.14;40.82;99015.38;1726236;82;21061;-63
2021/04/22 06:43:50;;;;;;;11.88;8.70;;;;;;;20.89;40.58;99017.00;1695947;84;21231;-65
2021/04/22 06:46:18;;;;;;;12.35;8.38;;;;;;;20.54;41.22;99024.13;1694184;84;21196;-62
2021/04/22 06:48:46;;;;;;;12.07;8.13;;;;;;;20.00;41.93;99020.38;1677939;84;21101;-63
2021/04/22 06:51:14;;;;;;;13.60;8.63;;;;;;;19.48;42.91;99030.80;1695867;84;21070;-63
2021/04/22 06:53:42;;;;;;;11.97;8.50;;;;;;;19.06;43.70;99025.70;1672835;85;21106;-65
2021/04/22 06:56:10;;;;;;;14.90;8.80;;;;;;;18.63;44.37;99037.04;1672794;84;21085;-63
2021/04/22 06:58:39;;;;;;;11.48;8.75;;;;;;;18.23;45.21;99034.75;1672838;86;21216;-62
2021/04/22 07:01:07;;;;;;;12.73;8.50;;;;;;;17.88;45.91;99026.25;1672856;84;21074;-61
2021/04/22 07:03:35;;;;;;;14.23;8.23;;;;;;;17.66;46.23;99027.05;1686916;83;21018;-64
2021/04/22 07:06:03;;;;;;;12.13;7.87;;;;;;;17.53;46.46;99021.17;1706670;84;21212;-65
2021/04/22 07:08:30;;;;;;;10.35;8.15;;;;;;;17.86;46.84;99025.45;1707013;84;21200;-62
2021/04/22 07:10:59;;;;;;;11.08;7.90;;;;;;;18.75;44.98;99015.91;1706837;84;21164;-61
2021/04/22 07:13:26;;;;;;;13.05;7.47;;;;;;;19.89;42.84;99019.78;1706881;84;21135;-63
2021/04/22 07:15:54;;;;;;;10.88;7.53;;;;;;;21.01;40.91;99022.77;1706821;84;21223;-62
2021/04/22 07:18:24;;;;;;;13.25;8.13;;;;;;;20.87;39.38;99018.37;1706766;84;21086;-63
2021/04/22 07:20:53;;;;;;;10.05;7.55;;;;;;;20.28;40.96;99020.48;1704631;84;21086;-66
2021/04/22 07:23:21;;;;;;;10.50;8.10;;;;;;;20.27;40.90;99029.23;1704239;84;21074;-64
2021/04/22 07:25:50;;;;;;;11.50;7.83;;;;;;;20.35;40.68;99021.16;1704328;84;21209;-72
2021/04/22 07:28:18;;;;;;;10.88;7.28;;;;;;;20.00;40.88;99016.44;1704078;84;21065;-69
2021/04/22 07:30:46;;;;;;;11.38;7.78;;;;;;;20.29;40.64;99012.16;1704352;84;21208;-68
2021/04/22 07:33:14;;;;;;;10.93;7.75;;;;;;;21.25;39.14;99025.53;1704211;84;21077;-69
2021/04/22 07:35:43;;;;;;;12.78;7.25;;;;;;;22.42;37.54;99034.80;1703945;84;21083;-71
2021/04/22 07:38:14;;;;;;;10.20;7.45;;;;;;;23.27;36.08;99039.05;1704225;84;21332;-70
2021/04/22 07:40:44;;;;;;;12.90;7.83;;;;;;;24.23;34.59;99030.25;1704065;84;21121;-70
2021/04/22 07:43:13;;;;;;;10.60;7.25;;;;;;;25.22;33.55;99043.37;1703944;84;21141;-68
2021/04/22 07:45:44;;;;;;;12.20;6.72;;;;;;;26.01;32.13;99039.55;1704194;84;21921;-68
2021/04/22 07:48:13;;;;;;;9.73;6.10;;;;;;;26.71;31.40;99050.41;1704610;84;21692;-63
2021/04/22 07:50:42;;;;;;;13.10;6.08;;;;;;;27.25;31.23;99047.52;1707184;84;21516;-63
2021/04/22 07:53:10;;;;;;;11.33;6.37;;;;;;;27.13;30.03;99046.84;1701043;84;21149;-62
2021/04/22 07:55:44;;;;;;;16.48;6.10;;;;;;;27.05;30.97;99052.09;1699428;84;21224;-63
2021/04/22 07:58:16;;;;;;;14.05;5.67;;;;;;;27.38;30.88;99052.98;1699460;84;21181;-63
2021/04/22 08:00:47;;;;;;;9.15;5.53;;;;;;;27.58;30.41;99059.31;1699266;84;21698;-64
2021/04/22 08:03:17;;;;;;;11.10;6.03;;;;;;;27.63;29.96;99050.63;1671593;86;21236;-63
2021/04/22 08:05:47;;;;;;;8.37;5.57;;;;;;;27.54;29.24;99051.62;1671754;86;21492;-62
2021/04/22 08:08:15;;;;;;;8.68;5.25;;;;;;;27.07;29.09;99042.70;1668675;86;21089;-62
2021/04/22 08:10:45;;;;;;;8.98;5.40;;;;;;;27.06;29.55;99058.23;1640917;85;21086;-64
2021/04/22 08:13:16;;;;;;;10.13;4.62;;;;;;;26.87;29.82;99053.10;1664438;86;21067;-64
2021/04/22 08:15:50;;;;;;;9.20;5.30;;;;;;;27.01;29.80;99043.91;1654501;84;21166;-65
2021/04/22 08:18:21;;;;;;;9.83;5.47;;;;;;;26.83;30.16;99039.63;1694048;85;21082;-61
2021/04/22 08:20:49;;;;;;;8.60;5.12;;;;;;;26.78;30.20;99047.82;1692840;84;21137;-62
2021/04/22 08:23:17;;;;;;;8.30;4.50;;;;;;;26.95;29.38;99044.27;1698795;84;21234;-62
2021/04/22 08:25:50;;;;;;;8.78;4.95;;;;;;;27.01;28.65;99034.64;1692812;84;21181;-60
2021/04/22 08:28:22;;;;;;;9.88;5.05;;;;;;;27.08;28.45;99051.06;1696910;84;21521;-62
2021/04/22 08:30:55;;;;;;;8.80;5.42;;;;;;;27.45;28.74;99049.01;1697545;83;21063;-63
2021/04/22 08:33:25;;;;;;;9.30;4.50;;;;;;;27.39;28.33;99029.49;1694444;83;21237;-63
2021/04/22 08:35:53;;;;;;;6.97;3.95;;;;;;;27.32;28.37;99032.95;1685567;85;21047;-61
2021/04/22 08:38:21;;;;;;;7.50;4.20;;;;;;;27.46;27.96;99025.08;1686278;84;21066;-61
2021/04/22 08:40:51;;;;;;;8.75;4.25;;;;;;;27.25;27.63;99039.56;1703602;83;21213;-61
2021/04/22 08:43:19;;;;;;;8.03;4.20;;;;;;;27.05;28.13;99038.84;1696343;84;21071;-62
2021/04/22 08:45:48;;;;;;;11.03;4.45;;;;;;;26.72;27.53;99034.92;1683162;84;21186;-61
2021/04/22 08:48:16;;;;;;;6.33;4.00;;;;;;;26.38;27.94;99038.47;1699993;84;21040;-65
2021/04/22 08:50:48;;;;;;;8.25;4.30;;;;;;;26.30;27.85;99028.29;1692301;84;21032;-66
2021/04/22 08:53:20;;;;;;;7.95;4.40;;;;;;;25.88;28.79;99035.34;1697926;83;21086;-65
2021/04/22 08:55:48;;;;;;;7.00;3.70;;;;;;;25.18;29.50;99035.19;1692616;83;21067;-68
2021/04/22 08:58:17;;;;;;;4.47;3.12;;;;;;;24.61;30.52;99031.67;1699516;83;21127;-64
2021/04/22 09:01:07;;;;;;;5.37;3.80;;;;;;;24.30;30.69;99029.50;1728248;81;21169;-68
2021/04/22 09:03:36;;;;;;;7.83;3.90;;;;;;;24.34;30.57;99009.52;1745433;81;21062;-66
2021/04/22 09:06:06;;;;;;;6.30;3.83;;;;;;;23.80;30.61;99013.64;1728761;83;21062;-72
2021/04/22 09:08:44;;;;;;;9.00;4.08;;;;;;;23.08;31.15;99012.14;1726608;81;21268;-70
2021/04/22 09:11:15;;;;;;;7.40;4.25;;;;;;;22.25;32.57;99020.46;1735179;81;21024;-69
2021/04/22 09:13:43;;;;;;;;;;;;;;;21.38;33.82;99023.38;1751722;81;20987;-69
2021/04/22 09:16:16;;;;;;;7.65;3.98;;;;;;;20.66;34.99;98999.33;1726452;81;20152;-69
2021/04/22 09:18:49;;;;;;;7.03;4.25;;;;;;;20.04;35.52;99014.13;1742920;81;21033;-70
2021/04/22 09:21:24;;;;;;;7.40;4.17;;;;;;;19.79;36.21;99011.29;1729138;81;21054;-69
2021/04/22 09:24:13;;;;;;;7.37;4.42;;;;;;;19.63;36.57;99013.88;1754156;81;21022;-69
2021/04/22 09:29:53;;;;;;;7.70;4.30;;;;;;;19.47;37.72;98995.08;1855786;76;22144;-70
2021/04/22 09:32:27;;;;;;;8.23;4.25;;;;;;;19.49;37.34;98997.21;1828721;77;21113;-68
2021/04/22 09:35:25;;;;;;;6.75;4.05;;;;;;;19.47;37.58;99006.39;1780165;80;21162;-70
2021/04/22 09:37:54;;;;;;;7.78;4.10;;;;;;;19.39;37.79;99000.95;1660707;86;21170;-66
2021/04/22 09:40:35;;;;;;;9.00;4.67;;;;;;;19.19;38.08;98985.72;1688481;85;21209;-66
2021/04/22 09:43:06;;;;;;;9.18;4.47;;;;;;;18.89;38.33;98987.28;1720906;83;21294;-66
2021/04/22 09:45:35;;;;;;;;;;;;;;;18.62;38.91;99009.16;1726546;82;21553;-68
2021/04/22 09:48:26;;;;;;;7.75;4.28;;;;;;;18.37;39.71;99006.22;1721607;83;20247;-65
2021/04/22 09:50:51;;;;;;;7.50;4.85;;;;;;;18.19;40.21;99006.09;1721568;83;21294;-68
2021/04/22 09:53:21;;;;;;;10.20;5.22;;;;;;;18.11;40.39;98997.56;1721598;83;21581;-66
2021/04/22 09:55:49;;;;;;;7.33;4.37;;;;;;;18.07;40.73;98997.22;1721783;83;21333;-65
2021/04/22 09:58:29;;;;;;;8.50;4.65;;;;;;;17.97;41.07;98980.41;1726436;83;21165;-66
2021/04/22 10:00:57;;;;;;;6.25;4.10;;;;;;;17.87;41.17;98984.08;1720863;83;21256;-66
2021/04/22 10:03:25;;;;;;;7.92;4.33;;;;;;;17.73;41.24;98988.64;1728243;82;21234;-69
2021/04/22 10:06:01;;;;;;;7.28;5.30;;;;;;;17.66;41.48;98985.30;1700310;83;21719;-67
2021/04/22 10:08:30;;;;;;;6.58;4.40;;;;;;;17.59;41.71;98987.59;1730159;82;21616;-67
2021/04/22 10:11:07;;;;;;;11.18;5.10;;;;;;;17.55;42.09;98985.48;1736090;83;21291;-66
2021/04/22 10:13:49;;;;;;;7.28;4.78;;;;;;;17.55;42.38;98990.70;1735946;82;21134;-67
2021/04/22 10:16:18;;;;;;;;;;;;;;;17.51;42.40;98979.89;1738404;83;21607;-66
2021/04/22 10:18:48;;;;;;;7.40;4.85;;;;;;;17.45;42.66;98981.73;1736492;82;20264;-67
2021/04/22 10:21:16;;;;;;;7.25;4.80;;;;;;;17.36;43.09;98976.23;1723385;82;21153;-68
2021/04/22 10:23:45;;;;;;;8.10;5.40;;;;;;;17.32;43.28;98985.83;1726055;82;21604;-67
2021/04/22 10:26:21;;;;;;;7.12;3.98;;;;;;;17.37;43.74;98968.81;1724164;82;21579;-67
2021/04/22 10:28:49;;;;;;;15.70;4.92;;;;;;;17.47;42.20;98975.59;1717080;82;21145;-67
2021/04/22 10:31:17;;;;;;;6.83;3.02;;;;;;;17.51;41.07;98973.81;1727410;82;21324;-64
2021/04/22 10:33:45;;;;;;;5.20;3.15;;;;;;;17.55;40.50;98979.37;1726899;82;21124;-64
2021/04/22 10:36:19;;;;;;;7.87;3.27;;;;;;;17.63;39.99;98976.64;1723774;81;21308;-67
2021/04/22 10:38:52;;;;;;;4.60;2.95;;;;;;;17.67;39.35;98980.93;1719740;82;21122;-68
2021/04/22 10:41:21;;;;;;;6.05;3.55;;;;;;;17.64;38.82;98977.93;1724991;83;21138;-65
2021/04/22 10:43:52;;;;;;;8.18;3.00;;;;;;;17.50;38.90;98975.57;1725159;82;21307;-66
2021/04/22 10:46:20;;;;;;;6.30;3.75;;;;;;;17.27;39.82;98978.53;1721480;82;21187;-65
2021/04/22 10:48:48;;;;;;;7.92;3.45;;;;;;;16.97;42.34;98993.34;1737622;82;21341;-66
2021/04/22 10:51:17;;;;;;;5.22;3.22;;;;;;;16.70;43.98;98986.30;1737820;82;21168;-65
2021/04/22 10:53:44;;;;;;;5.03;3.45;;;;;;;16.56;45.11;98977.34;1737566;81;21290;-66
2021/04/22 10:56:12;;;;;;;5.80;3.47;;;;;;;16.65;45.66;98977.23;1737683;81;21159;-65
2021/04/22 10:58:45;;;;;;;5.90;4.15;;;;;;;16.87;46.07;98976.55;1737690;82;21216;-65
2021/04/22 11:01:14;;;;;;;7.60;4.35;;;;;;;17.05;45.50;98970.20;1736151;81;21138;-65
2021/04/22 11:03:48;;;;;;;7.72;4.72;;;;;;;17.11;45.99;98979.22;1725422;82;21122;-66
2021/04/22 11:06:21;;;;;;;6.85;4.92;;;;;;;17.07;46.38;98984.08;1723148;83;21142;-66
2021/04/22 11:08:57;;;;;;;7.50;4.65;;;;;;;16.95;47.12;98986.01;1728044;82;21135;-67
2021/04/22 11:11:35;;;;;;;7.87;5.70;;;;;;;16.80;47.77;98987.94;1725775;82;21135;-66
2021/04/22 11:14:15;;;;;;;8.60;5.67;;;;;;;16.44;51.37;98954.09;1721983;82;21099;-66
2021/04/22 11:16:53;;;;;;;8.48;5.37;;;;;;;15.68;54.08;98955.78;1723331;83;21606;-66
2021/04/22 11:19:25;;;;;;;9.00;5.80;;;;;;;15.12;52.76;98959.30;1722865;83;21300;-66
2021/04/22 11:21:55;;;;;;;;;;;;;;;14.88;52.61;98948.63;1727621;83;21198;-65
2021/04/22 11:24:30;;;;;;;6.25;4.65;;;;;;;14.83;52.33;98947.80;1724687;82;20177;-65
2021/04/22 11:27:13;;;;;;;6.87;5.28;;;;;;;14.80;51.40;98946.08;1720665;83;21573;-67
2021/04/22 11:29:59;;;;;;;9.65;5.15;;;;;;;14.81;52.25;98953.02;1723120;82;21161;-66
2021/04/22 11:32:35;;;;;;;8.43;6.05;;;;;;;14.80;52.67;98943.48;1722457;82;21181;-66
2021/04/22 11:35:16;;;;;;;10.10;6.03;;;;;;;14.94;52.39;98939.06;1716719;83;21587;-60
2021/04/22 11:37:55;;;;;;;10.15;6.65;;;;;;;15.11;53.09;98940.25;1716401;83;21165;-63
2021/04/22 11:40:27;;;;;;;8.93;6.30;;;;;;;15.29;52.72;98939.23;1716208;83;21150;-63
2021/04/22 11:42:56;;;;;;;8.38;6.12;;;;;;;15.73;51.71;98935.82;1716533;83;21580;-63
2021/04/22 11:45:31;;;;;;;8.15;5.83;;;;;;;15.96;50.81;98932.97;1696246;83;21169;-64